createdAt,value
2022-09-07T00:03:24.958Z,13.00
2022-09-07T00:18:38.821Z,11.30
2022-09-07T00:23:45.814Z,13.40
2022-09-07T00:28:49.940Z,11.80
2022-09-07T00:33:54.782Z,9.70
2022-09-07T00:38:58.724Z,11.80
2022-09-07T00:44:42.486Z,10.40
2022-09-07T00:49:50.898Z,11.70
2022-09-07T00:55:02.908Z,12.50
2022-09-07T01:00:07.891Z,13.60
2022-09-07T01:05:48.662Z,11.20
2022-09-07T01:10:52.035Z,14.10
2022-09-07T01:16:16.226Z,16.10
2022-09-07T01:21:50.163Z,16.40
2022-09-07T01:27:43.284Z,13.90
2022-09-07T01:33:26.400Z,17.50
2022-09-07T01:38:54.840Z,18.30
2022-09-07T01:44:18.799Z,17.20
2022-09-07T01:49:37.376Z,14.20
2022-09-07T01:54:55.470Z,14.60
2022-09-07T02:00:16.781Z,12.40
2022-09-07T02:05:52.120Z,13.70
2022-09-07T02:11:08.848Z,15.70
2022-09-07T02:16:20.522Z,12.40
2022-09-07T02:21:38.618Z,14.60
2022-09-07T02:26:42.667Z,13.70
2022-09-07T02:31:50.304Z,13.30
2022-09-07T02:36:54.844Z,14.70
2022-09-07T02:41:57.998Z,13.30
2022-09-07T02:47:20.985Z,15.40
2022-09-07T02:52:48.037Z,13.30
2022-09-07T02:58:28.545Z,14.50
2022-09-07T03:04:21.845Z,14.80
2022-09-07T03:09:32.991Z,15.50
2022-09-07T03:14:40.513Z,15.10
2022-09-07T03:19:46.600Z,14.20
2022-09-07T03:24:49.664Z,11.20
2022-09-07T03:29:52.851Z,14.10
2022-09-07T03:34:56.751Z,14.00
2022-09-07T03:39:59.890Z,15.40
2022-09-07T03:45:03.649Z,13.00
2022-09-07T03:55:11.191Z,14.40
2022-09-07T04:00:14.891Z,12.80
2022-09-07T04:05:18.121Z,13.00
2022-09-07T04:10:21.202Z,15.80
2022-09-07T04:15:24.633Z,14.10
2022-09-07T04:20:28.551Z,12.80
2022-09-07T04:25:35.095Z,13.80
2022-09-07T04:30:38.212Z,13.00
2022-09-07T04:35:43.109Z,14.90
2022-09-07T04:40:46.180Z,12.90
2022-09-07T04:45:49.286Z,13.80
2022-09-07T04:50:52.449Z,11.50
2022-09-07T04:55:58.408Z,19.00
2022-09-07T05:01:06.371Z,12.90
2022-09-07T05:06:10.456Z,12.90
2022-09-07T05:11:15.226Z,13.50
2022-09-07T05:16:22.940Z,16.70
2022-09-07T05:21:30.037Z,14.60
2022-09-07T05:26:36.400Z,15.70
2022-09-07T05:31:39.516Z,15.00
2022-09-07T05:36:42.604Z,15.10
2022-09-07T05:41:45.697Z,16.00
2022-09-07T05:46:48.847Z,17.40
2022-09-07T05:51:51.911Z,17.80
2022-09-07T05:56:54.962Z,15.70
2022-09-07T06:01:58.137Z,17.50
2022-09-07T06:17:31.327Z,17.50
2022-09-07T06:22:38.395Z,19.90
2022-09-07T06:27:41.450Z,15.30
2022-09-07T06:32:44.949Z,17.60
2022-09-07T06:37:48.365Z,16.40
2022-09-07T06:42:52.492Z,20.10
2022-09-07T06:47:55.621Z,21.10
2022-09-07T06:58:22.221Z,20.40
2022-09-07T07:03:25.364Z,18.50
2022-09-07T07:08:28.531Z,19.90
2022-09-07T07:13:31.808Z,20.40
2022-09-07T07:18:36.386Z,19.70
2022-09-07T07:23:40.520Z,21.60
2022-09-07T07:29:04.777Z,19.20
2022-09-07T07:34:08.804Z,16.70
2022-09-07T07:54:40.731Z,13.50
2022-09-07T07:59:43.763Z,15.60
2022-09-07T08:04:46.832Z,13.80
2022-09-07T08:09:50.046Z,12.30
2022-09-07T08:14:54.293Z,14.00
2022-09-07T08:19:57.419Z,15.30
2022-09-07T08:25:00.674Z,13.30
2022-09-07T08:30:04.220Z,12.60
2022-09-07T08:35:08.270Z,14.20
2022-09-07T08:40:19.739Z,9.20
2022-09-07T08:45:48.748Z,10.50
2022-09-07T08:51:12.173Z,17.60
2022-09-07T08:56:33.439Z,11.20
2022-09-07T09:01:42.486Z,8.50
2022-09-07T09:07:24.294Z,9.40
2022-09-07T09:12:52.562Z,9.80
2022-09-07T09:18:31.531Z,8.80
2022-09-07T09:23:40.881Z,10.70
2022-09-07T09:28:44.263Z,9.20
2022-09-07T09:39:32.956Z,11.00
2022-09-07T09:44:38.538Z,10.80
2022-09-07T09:49:41.748Z,12.20
2022-09-07T09:54:51.377Z,13.80
2022-09-07T10:00:06.909Z,9.60
2022-09-07T10:05:45.654Z,11.00
2022-09-07T10:11:04.833Z,12.10
2022-09-07T10:16:10.398Z,10.20
2022-09-07T10:21:30.997Z,8.80
2022-09-07T10:26:39.316Z,11.30
2022-09-07T10:31:54.734Z,11.90
2022-09-07T10:37:10.685Z,12.30
2022-09-07T10:42:29.310Z,9.60
2022-09-07T10:47:48.756Z,12.50
2022-09-07T10:53:13.405Z,10.60
2022-09-07T10:59:02.777Z,10.10
2022-09-07T11:04:53.133Z,12.30
2022-09-07T11:10:15.332Z,10.90
2022-09-07T11:15:50.761Z,11.30
2022-09-07T11:20:59.138Z,12.60
2022-09-07T11:26:54.131Z,12.90
2022-09-07T11:32:05.045Z,9.90
2022-09-07T11:37:27.129Z,11.00
2022-09-07T11:43:37.303Z,14.70
2022-09-07T11:49:06.384Z,13.50
2022-09-07T11:54:32.335Z,9.30
2022-09-07T11:59:53.867Z,11.20
2022-09-07T12:05:07.516Z,10.20
2022-09-07T12:10:37.978Z,10.50
2022-09-07T12:16:10.229Z,12.30
2022-09-07T12:21:53.201Z,10.90
2022-09-07T12:26:59.388Z,11.80
2022-09-07T12:32:53.103Z,12.10
2022-09-07T12:37:27.515Z,9.60
2022-09-07T12:42:32.248Z,10.30
2022-09-07T12:47:35.701Z,12.70
2022-09-07T12:52:57.710Z,10.50
2022-09-07T12:58:19.588Z,12.90
2022-09-07T13:04:07.755Z,16.20
2022-09-07T13:09:37.739Z,10.00
2022-09-07T13:14:42.858Z,11.50
2022-09-07T13:19:55.181Z,9.60
2022-09-07T13:25:03.801Z,10.20
2022-09-07T13:30:16.512Z,9.40
2022-09-07T13:35:24.074Z,10.40
2022-09-07T13:40:45.818Z,12.10
2022-09-07T13:45:54.848Z,14.70
2022-09-07T13:51:10.812Z,9.00
2022-09-07T13:56:38.509Z,10.00
2022-09-07T14:01:47.747Z,10.10
2022-09-07T14:06:51.053Z,11.40
2022-09-07T14:11:55.164Z,11.20
2022-09-07T14:17:08.623Z,11.60
2022-09-07T14:22:26.684Z,10.30
2022-09-07T14:27:39.457Z,10.00
2022-09-07T14:32:43.946Z,12.50
2022-09-07T14:37:49.255Z,10.10
2022-09-07T14:42:55.578Z,10.80
2022-09-07T14:47:59.517Z,12.60
2022-09-07T14:58:34.942Z,12.80
2022-09-07T15:08:49.383Z,10.00
2022-09-07T15:14:09.642Z,10.90
2022-09-07T15:19:15.506Z,12.60
2022-09-07T15:24:18.843Z,14.80
2022-09-07T15:29:22.326Z,13.70
2022-09-07T15:34:26.442Z,9.70
2022-09-07T15:44:38.127Z,10.40
2022-09-07T15:49:49.997Z,11.40
2022-09-07T15:54:54.018Z,14.70
2022-09-07T15:59:58.312Z,17.10
2022-09-07T16:05:01.419Z,13.30
2022-09-07T16:15:12.732Z,13.60
2022-09-07T16:20:16.730Z,13.80
2022-09-07T16:25:20.475Z,15.20
2022-09-07T16:30:23.543Z,13.70
2022-09-07T16:35:26.691Z,38.50
2022-09-07T16:51:01.710Z,17.70
2022-09-07T16:56:18.879Z,17.90
2022-09-07T17:01:26.429Z,16.40
2022-09-07T17:06:31.327Z,17.50
2022-09-07T17:11:36.550Z,21.00
2022-09-07T17:16:41.744Z,21.70
2022-09-07T17:21:46.328Z,25.60
2022-09-07T17:26:49.643Z,24.10
2022-09-07T17:37:16.011Z,41.10
2022-09-07T17:42:19.173Z,36.80
2022-09-07T17:47:22.184Z,73.10
2022-09-07T17:52:25.880Z,82.20
2022-09-07T17:57:29.169Z,80.30
2022-09-07T18:02:33.048Z,47.00
2022-09-07T18:07:36.081Z,45.30
2022-09-07T18:12:39.242Z,34.90
2022-09-07T18:17:42.395Z,42.80
2022-09-07T18:22:46.191Z,40.70
2022-09-07T18:29:03.370Z,29.30
2022-09-07T18:33:12.326Z,34.30
2022-09-07T18:38:15.405Z,38.70
2022-09-07T18:43:18.419Z,29.00
2022-09-07T18:48:21.441Z,21.10
2022-09-07T18:53:24.896Z,22.80
2022-09-07T19:03:31.773Z,20.80
2022-09-07T19:08:38.207Z,32.00
2022-09-07T19:13:41.463Z,29.40
2022-09-07T19:18:57.445Z,29.00
2022-09-07T19:24:04.336Z,25.60
2022-09-07T19:29:15.549Z,31.10
2022-09-07T19:34:18.765Z,29.50
2022-09-07T19:39:21.810Z,25.40
2022-09-07T19:44:25.006Z,29.50
2022-09-07T19:49:28.769Z,31.40
2022-09-07T19:54:31.896Z,29.30
2022-09-07T19:59:34.953Z,29.00
2022-09-07T20:04:38.278Z,40.70
2022-09-07T20:09:41.781Z,33.40
2022-09-07T20:14:45.537Z,34.30
2022-09-07T20:19:48.658Z,42.20
2022-09-07T20:24:51.706Z,37.80
2022-09-07T20:29:54.847Z,38.50
2022-09-07T20:40:01.803Z,34.90
2022-09-07T20:50:08.570Z,37.20
2022-09-07T21:00:15.060Z,35.50
2022-09-07T21:05:18.137Z,34.70
2022-09-07T21:10:21.573Z,31.90
2022-09-07T21:20:32.727Z,35.10
2022-09-07T21:25:43.093Z,28.90
2022-09-07T21:30:59.131Z,33.20
2022-09-07T21:36:12.376Z,35.90
2022-09-07T21:46:20.365Z,35.80
2022-09-07T21:51:24.919Z,35.80
2022-09-07T21:56:30.191Z,28.70
2022-09-07T22:01:33.487Z,26.90
2022-09-07T22:11:44.180Z,31.40
2022-09-07T22:16:49.095Z,32.90
2022-09-07T22:21:53.541Z,29.80
2022-09-07T22:26:57.220Z,30.00
2022-09-07T22:32:00.223Z,30.50
2022-09-07T22:37:03.230Z,28.10
2022-09-07T22:42:06.340Z,33.20
2022-09-07T22:47:10.795Z,28.60
2022-09-07T22:52:13.851Z,30.30
2022-09-07T22:57:16.885Z,37.40
2022-09-07T23:02:19.895Z,32.50
2022-09-07T23:07:22.923Z,40.30
2022-09-07T23:12:25.944Z,34.50
2022-09-07T23:17:28.942Z,39.10
2022-09-07T23:22:32.139Z,33.00
2022-09-07T23:27:35.528Z,35.20
2022-09-07T23:32:38.561Z,35.60
2022-09-07T23:37:41.566Z,35.20
2022-09-07T23:42:44.637Z,30.80
2022-09-07T23:47:47.712Z,29.90
2022-09-07T23:52:50.748Z,29.10
2022-09-07T23:57:53.752Z,29.10
